Time;durP1;ratioP1;P1;durP2;ratioP2;P2;SDS_P1;SDS_P2;PMS_P1;PMS_P2;Temp;Humidity;BMP_temperature;BMP_pressure;BME280_temperature;BME280_humidity;BME280_pressure;Samples;Min_cycle;Max_cycle;Signal;HPM_P1;HPM_P2
2023/06/05 00:04:40;;;;;;;12.00;11.07;;;14.20;99.90;;;;;;2615662;54;20427;-78
2023/06/05 00:10:28;;;;;;;11.70;10.80;;;14.20;99.90;;;;;;2613344;54;20439;-79
2023/06/05 00:16:16;;;;;;;10.90;10.20;;;14.30;99.90;;;;;;2616125;31;20635;-78
2023/06/05 00:19:20;;;;;;;11.50;10.50;;;14.20;99.90;;;;;;2615166;54;20411;-79
2023/06/05 00:28:30;;;;;;;10.60;9.60;;;14.10;99.90;;;;;;2614569;54;20823;-79
2023/06/05 00:34:18;;;;;;;10.87;10.27;;;14.00;99.90;;;;;;2615502;54;20430;-78
2023/06/05 00:40:07;;;;;;;10.80;10.07;;;13.90;99.90;;;;;;2615205;54;20395;-79
2023/06/05 00:46:02;;;;;;;10.30;9.63;;;13.80;99.90;;;;;;2614280;54;20374;-78
2023/06/05 00:51:50;;;;;;;11.00;10.10;;;13.80;99.90;;;;;;2613698;54;20414;-79
2023/06/05 00:57:41;;;;;;;10.30;9.27;;;13.70;99.90;;;;;;2613827;54;20387;-79
2023/06/05 01:06:51;;;;;;;10.50;9.90;;;13.60;99.90;;;;;;2612990;54;20391;-71
2023/06/05 01:19:14;;;;;;;11.17;10.47;;;13.20;99.90;;;;;;2613428;54;20407;-73
2023/06/05 01:28:28;;;;;;;10.30;9.60;;;12.90;99.90;;;;;;2613640;54;20423;-72
2023/06/05 01:34:19;;;;;;;10.87;9.83;;;12.90;99.90;;;;;;2612715;54;20437;-73
2023/06/05 01:40:12;;;;;;;10.70;9.70;;;12.80;99.90;;;;;;2614288;54;20391;-72
2023/06/05 01:46:00;;;;;;;10.20;9.30;;;12.80;99.90;;;;;;2614597;54;20422;-72
2023/06/05 01:51:48;;;;;;;10.70;9.80;;;12.70;99.90;;;;;;2615052;39;20774;-72
2023/06/05 01:57:36;;;;;;;10.73;9.90;;;12.50;99.90;;;;;;2614842;54;20122;-73
2023/06/05 02:03:25;;;;;;;10.07;9.47;;;12.40;99.90;;;;;;2614899;54;20933;-72
2023/06/05 02:09:13;;;;;;;10.73;9.73;;;12.40;99.90;;;;;;2613000;54;20423;-72
2023/06/05 02:15:00;;;;;;;11.37;10.57;;;12.30;99.90;;;;;;2613768;54;20158;-73
2023/06/05 02:20:53;;;;;;;14.83;9.50;;;12.20;99.90;;;;;;2614972;54;20395;-72
2023/06/05 02:26:41;;;;;;;9.90;9.10;;;12.10;99.90;;;;;;2614722;54;20409;-72
2023/06/05 02:32:29;;;;;;;10.67;9.67;;;12.00;99.90;;;;;;2615344;54;20146;-73
2023/06/05 02:38:16;;;;;;;9.70;9.00;;;11.90;99.90;;;;;;2615234;39;20841;-73
2023/06/05 02:44:04;;;;;;;9.60;9.00;;;11.80;99.90;;;;;;2614930;54;20123;-72
2023/06/05 02:49:52;;;;;;;11.17;10.10;;;11.80;99.90;;;;;;2615160;54;20150;-72
2023/06/05 02:55:40;;;;;;;10.57;9.73;;;11.60;99.90;;;;;;2613527;54;20142;-72
2023/06/05 03:01:34;;;;;;;9.47;8.70;;;11.50;99.90;;;;;;2614794;39;20564;-78
2023/06/05 03:07:22;;;;;;;15.47;9.60;;;11.40;99.90;;;;;;2613916;54;20407;-78
2023/06/05 03:13:10;;;;;;;9.77;8.97;;;11.40;99.90;;;;;;2612090;54;20385;-78
2023/06/05 03:18:58;;;;;;;9.97;9.07;;;11.30;99.90;;;;;;2614183;54;20122;-78
2023/06/05 03:28:15;;;;;;;9.27;8.53;;;11.20;99.90;;;;;;2614092;54;20981;-78
2023/06/05 03:34:03;;;;;;;10.17;8.97;;;11.10;99.90;;;;;;2614222;54;20386;-78
2023/06/05 03:39:51;;;;;;;10.63;9.50;;;11.10;99.90;;;;;;2613762;54;20948;-78
2023/06/05 03:45:42;;;;;;;10.50;9.43;;;11.00;99.90;;;;;;2614892;54;20154;-78
2023/06/05 03:51:29;;;;;;;13.63;11.50;;;11.00;99.90;;;;;;2613463;54;20406;-77
2023/06/05 03:57:16;;;;;;;10.70;9.70;;;11.00;99.90;;;;;;2611495;54;20243;-77
2023/06/05 04:06:25;;;;;;;9.53;8.80;;;11.00;99.90;;;;;;2612376;54;20865;-77
2023/06/05 04:12:14;;;;;;;13.60;9.63;;;11.10;99.90;;;;;;2613484;46;20171;-78
2023/06/05 04:18:02;;;;;;;10.37;9.50;;;11.10;99.90;;;;;;2612277;54;20406;-77
2023/06/05 04:30:34;;;;;;;12.23;11.33;;;11.30;99.90;;;;;;2615491;39;20790;-77
2023/06/05 04:36:22;;;;;;;13.33;12.07;;;11.40;99.90;;;;;;2614746;54;20399;-77
2023/06/05 04:42:11;;;;;;;12.13;11.00;;;11.70;99.90;;;;;;2614304;54;20499;-78
2023/06/05 04:47:58;;;;;;;13.07;11.83;;;12.00;99.90;;;;;;2614369;54;20243;-77
2023/06/05 04:53:50;;;;;;;14.13;12.73;;;12.30;99.90;;;;;;2613284;54;20153;-78
2023/06/05 04:59:38;;;;;;;14.07;12.73;;;12.70;99.90;;;;;;2613952;54;20989;-77
2023/06/05 05:05:26;;;;;;;13.80;12.70;;;12.90;99.90;;;;;;2614714;54;20392;-78
2023/06/05 05:11:15;;;;;;;15.20;13.73;;;13.10;99.90;;;;;;2614370;54;20649;-78
2023/06/05 05:17:03;;;;;;;15.00;13.60;;;13.30;99.90;;;;;;2613738;54;20431;-75
2023/06/05 05:22:53;;;;;;;16.70;15.20;;;13.90;99.90;;;;;;2614010;54;20379;-77
2023/06/05 05:28:43;;;;;;;15.77;14.47;;;13.90;99.90;;;;;;2611622;54;20398;-77
2023/06/05 05:34:33;;;;;;;15.43;14.13;;;13.70;99.90;;;;;;2613152;54;20391;-77
2023/06/05 05:40:21;;;;;;;13.97;12.77;;;14.00;99.90;;;;;;2615139;54;20430;-76
2023/06/05 05:46:08;;;;;;;15.70;14.37;;;14.50;99.90;;;;;;2615130;54;20134;-77
2023/06/05 05:51:57;;;;;;;16.83;15.30;;;15.00;99.90;;;;;;2613858;39;20535;-76
2023/06/05 05:57:45;;;;;;;16.93;15.90;;;15.60;99.90;;;;;;2613512;54;20391;-73
2023/06/05 06:03:36;;;;;;;15.80;14.80;;;15.70;99.90;;;;;;2612865;54;20386;-72
2023/06/05 06:09:24;;;;;;;19.03;17.43;;;15.90;99.90;;;;;;2612153;54;20558;-73
2023/06/05 06:15:12;;;;;;;18.80;17.43;;;16.10;99.90;;;;;;2612637;54;20399;-72
2023/06/05 06:21:00;;;;;;;19.97;18.40;;;16.10;99.90;;;;;;2612781;54;20150;-73
2023/06/05 06:23:44;;;;;;;18.10;16.90;;;16.20;99.90;;;;;;2612172;54;20419;-73
2023/06/05 06:26:11;;;;;;;19.40;18.00;;;16.50;99.90;;;;;;2610866;54;20419;-73
2023/06/05 06:32:00;;;;;;;18.43;17.20;;;16.80;99.90;;;;;;2611220;54;20952;-73
2023/06/05 06:37:48;;;;;;;20.13;18.70;;;17.10;99.90;;;;;;2613184;54;20383;-73
2023/06/05 06:43:36;;;;;;;19.87;18.50;;;16.80;99.90;;;;;;2613790;54;20161;-73
2023/06/05 06:49:24;;;;;;;19.63;18.37;;;17.20;99.90;;;;;;2613948;54;20146;-73
2023/06/05 06:55:11;;;;;;;19.40;17.93;;;17.50;99.90;;;;;;2609434;46;20169;-73
2023/06/05 07:00:59;;;;;;;19.93;17.90;;;17.50;99.90;;;;;;2612922;54;20150;-73
2023/06/05 07:06:47;;;;;;;19.90;18.47;;;17.80;99.90;;;;;;2613969;54;20134;-73
2023/06/05 07:12:35;;;;;;;21.10;19.40;;;18.30;99.90;;;;;;2613039;54;20659;-73
2023/06/05 07:18:23;;;;;;;22.00;20.13;;;18.80;90.40;;;;;;2613297;54;20138;-72
2023/06/05 07:28:17;;;;;;;19.13;18.03;;;18.90;87.50;;;;;;2612416;54;20422;-73
2023/06/05 07:34:05;;;;;;;19.97;18.77;;;19.10;54.80;;;;;;2611261;54;20519;-73
2023/06/05 07:39:53;;;;;;;18.83;17.60;;;19.70;54.20;;;;;;2611513;54;21119;-73
2023/06/05 07:45:41;;;;;;;18.97;17.50;;;19.70;57.90;;;;;;2612607;39;20518;-73
2023/06/05 07:51:33;;;;;;;18.00;16.80;;;20.30;50.30;;;;;;2612808;54;20145;-73
2023/06/05 07:57:21;;;;;;;18.77;17.60;;;20.30;49.00;;;;;;2613662;54;20949;-73
2023/06/05 08:03:08;;;;;;;19.20;18.07;;;20.70;43.60;;;;;;2613046;54;20149;-73
2023/06/05 08:08:56;;;;;;;19.20;17.83;;;21.20;37.60;;;;;;2614158;54;20122;-73
2023/06/05 08:14:45;;;;;;;20.13;18.27;;;21.10;33.20;;;;;;2614343;54;20317;-73
2023/06/05 08:20:32;;;;;;;19.67;18.30;;;21.20;32.00;;;;;;2612545;54;20359;-74
2023/06/05 08:23:44;;;;;;;20.07;18.67;;;20.90;36.50;;;;;;2611695;47;20414;-73
2023/06/05 08:26:12;;;;;;;18.73;17.63;;;21.10;34.00;;;;;;2614347;54;21138;-72
2023/06/05 08:32:00;;;;;;;19.50;17.57;;;21.10;32.50;;;;;;2614714;54;20435;-74
2023/06/05 08:37:48;;;;;;;18.90;17.27;;;21.50;30.60;;;;;;2614472;54;20122;-74
2023/06/05 08:43:37;;;;;;;17.03;15.70;;;21.60;27.50;;;;;;2614489;54;20151;-74
2023/06/05 08:49:29;;;;;;;16.67;15.57;;;22.40;26.00;;;;;;2614563;54;20395;-73
2023/06/05 08:55:17;;;;;;;16.73;15.63;;;22.60;23.50;;;;;;2614932;54;20973;-73
2023/06/05 09:01:05;;;;;;;18.23;17.13;;;22.00;22.20;;;;;;2615344;54;20908;-73
2023/06/05 09:06:53;;;;;;;18.23;16.93;;;22.70;20.60;;;;;;2615743;39;20517;-73
2023/06/05 09:19:40;;;;;;;16.40;15.30;;;23.10;17.30;;;;;;2615338;54;20418;-74
2023/06/05 09:28:58;;;;;;;17.47;16.07;;;23.70;14.30;;;;;;2615545;54;20391;-73
2023/06/05 09:41:18;;;;;;;15.87;14.83;;;23.70;12.10;;;;;;2615466;54;20492;-74
2023/06/05 09:47:10;;;;;;;15.93;14.83;;;24.10;7.60;;;;;;2615290;54;20399;-74
2023/06/05 09:52:59;;;;;;;16.57;15.37;;;24.00;10.00;;;;;;2615071;54;20415;-73
2023/06/05 09:58:53;;;;;;;17.03;15.73;;;24.70;8.60;;;;;;2615414;54;20395;-74
2023/06/05 10:04:48;;;;;;;17.80;16.70;;;24.40;8.40;;;;;;2615396;54;20488;-74
2023/06/05 10:10:37;;;;;;;17.00;15.90;;;24.40;5.70;;;;;;2615240;54;20372;-73
2023/06/05 10:16:30;;;;;;;16.03;14.93;;;25.10;5.20;;;;;;2614928;54;20386;-73
2023/06/05 10:22:19;;;;;;;16.10;14.73;;;24.50;2.60;;;;;;2615054;54;20431;-74
2023/06/05 10:38:18;;;;;;;14.83;13.70;;;26.00;1.00;;;;;;2614998;54;20755;-74
2023/06/05 10:44:05;;;;;;;16.43;15.00;;;25.70;1.00;;;;;;2614886;54;20904;-74
2023/06/05 10:50:15;;;;;;;15.33;14.10;;;25.70;1.00;;;;;;2614944;39;20955;-74
2023/06/05 10:56:03;;;;;;;16.37;15.27;;;26.30;1.00;;;;;;2614909;54;20368;-75
2023/06/05 11:02:06;;;;;;;15.80;14.80;;;26.60;1.00;;;;;;2615084;54;20123;-74
2023/06/05 11:08:13;;;;;;;14.60;13.70;;;25.70;1.00;;;;;;2614889;54;20392;-74
2023/06/05 11:14:00;;;;;;;15.70;14.60;;;26.70;1.00;;;;;;2614734;54;20438;-74
2023/06/05 11:19:48;;;;;;;15.23;14.23;;;26.80;1.00;;;;;;2615076;54;20154;-74
2023/06/05 11:25:36;;;;;;;14.80;13.90;;;26.80;1.00;;;;;;2614562;54;20187;-74
2023/06/05 11:34:47;;;;;;;15.03;14.13;;;26.30;1.00;;;;;;2614113;54;20434;-74
2023/06/05 11:40:35;;;;;;;15.83;14.73;;;26.70;1.00;;;;;;2614902;54;21418;-74
2023/06/05 11:46:43;;;;;;;14.90;14.00;;;26.90;1.00;;;;;;2614999;54;20427;-73
2023/06/05 11:52:30;;;;;;;13.73;12.83;;;27.50;1.00;;;;;;2614787;54;20419;-73
2023/06/05 11:58:28;;;;;;;14.90;13.80;;;28.00;1.00;;;;;;2614808;54;20186;-74
2023/06/05 12:04:15;;;;;;;14.23;13.47;;;26.20;1.00;;;;;;2615111;39;20881;-74
2023/06/05 12:07:18;;;;;;;13.73;12.83;;;26.70;1.00;;;;;;2614583;54;20435;-73
2023/06/05 12:09:51;;;;;;;15.10;13.80;;;27.30;1.00;;;;;;2614099;46;20201;-73
2023/06/05 12:15:39;;;;;;;15.60;14.10;;;27.50;1.00;;;;;;2615137;54;20422;-73
2023/06/05 12:21:27;;;;;;;14.70;13.80;;;27.40;1.00;;;;;;2615267;54;20175;-74
2023/06/05 12:27:15;;;;;;;14.23;13.43;;;26.80;1.00;;;;;;2614859;54;20454;-74
2023/06/05 12:30:19;;;;;;;13.63;12.93;;;27.10;1.00;;;;;;2613839;54;20412;-74
2023/06/05 12:32:45;;;;;;;14.27;13.17;;;28.00;1.00;;;;;;2614276;54;20165;-75
2023/06/05 12:38:41;;;;;;;15.57;14.57;;;27.80;1.00;;;;;;2613924;54;20391;-74
2023/06/05 12:44:30;;;;;;;15.03;13.97;;;27.30;1.00;;;;;;2614593;46;20391;-73
2023/06/05 12:50:19;;;;;;;14.30;13.50;;;27.50;1.00;;;;;;2614320;54;20414;-73
2023/06/05 12:56:06;;;;;;;13.97;13.17;;;27.80;1.00;;;;;;2614672;39;20778;-74
2023/06/05 13:01:57;;;;;;;14.10;13.30;;;27.30;1.00;;;;;;2614588;54;20159;-74
2023/06/05 13:07:44;;;;;;;14.80;14.00;;;27.80;1.00;;;;;;2614219;54;21071;-73
2023/06/05 13:13:32;;;;;;;15.00;13.80;;;27.70;1.00;;;;;;2614242;54;20227;-74
2023/06/05 13:19:21;;;;;;;15.10;14.00;;;27.70;1.00;;;;;;2614452;54;20391;-74
2023/06/05 13:25:09;;;;;;;13.90;13.10;;;28.00;1.00;;;;;;2614251;46;20138;-75
2023/06/05 13:41:13;;;;;;;13.57;12.77;;;27.70;1.00;;;;;;2612097;54;20552;-74
2023/06/05 13:47:02;;;;;;;14.00;13.20;;;27.60;1.00;;;;;;2613399;54;20412;-72
2023/06/05 13:52:50;;;;;;;14.00;13.10;;;27.50;1.00;;;;;;2613760;54;20492;-73
2023/06/05 13:58:37;;;;;;;13.70;12.60;;;27.50;1.00;;;;;;2613867;54;20414;-74
2023/06/05 14:04:24;;;;;;;13.37;12.47;;;27.20;1.00;;;;;;2614327;54;20134;-73
2023/06/05 14:10:11;;;;;;;14.10;13.30;;;27.50;1.00;;;;;;2613760;54;20122;-74
2023/06/05 14:15:58;;;;;;;13.67;12.70;;;27.50;1.00;;;;;;2615519;54;20145;-74
2023/06/05 14:21:46;;;;;;;14.07;13.17;;;27.70;1.00;;;;;;2615602;54;20130;-73
2023/06/05 14:27:34;;;;;;;14.57;13.30;;;27.40;1.00;;;;;;2615204;54;20238;-73
2023/06/05 14:30:19;;;;;;;13.60;12.80;;;27.10;1.00;;;;;;2614571;46;20407;-73
2023/06/05 14:32:44;;;;;;;13.80;13.10;;;27.60;1.00;;;;;;2614656;46;20196;-73
2023/06/05 14:38:32;;;;;;;13.27;12.57;;;27.90;1.00;;;;;;2615003;54;20258;-74
2023/06/05 14:44:20;;;;;;;13.50;12.80;;;27.20;1.00;;;;;;2615681;39;20548;-74
2023/06/05 14:50:08;;;;;;;14.17;13.00;;;27.50;1.00;;;;;;2614748;54;20130;-73
2023/06/05 14:55:56;;;;;;;13.80;13.10;;;27.40;1.00;;;;;;2615248;54;20134;-73
2023/06/05 15:01:44;;;;;;;12.77;12.07;;;27.80;1.00;;;;;;2615100;54;20158;-73
2023/06/05 15:07:37;;;;;;;12.73;11.83;;;27.50;1.00;;;;;;2614945;54;20149;-74
2023/06/05 15:13:24;;;;;;;12.73;11.93;;;27.50;1.00;;;;;;2615449;54;20961;-73
2023/06/05 15:19:12;;;;;;;12.77;12.07;;;27.50;1.00;;;;;;2615749;39;20513;-74
2023/06/05 15:25:00;;;;;;;12.70;11.90;;;26.80;1.00;;;;;;2615588;54;20150;-73
2023/06/05 15:34:47;;;;;;;13.20;12.20;;;26.60;1.00;;;;;;2615374;54;20491;-74
2023/06/05 15:40:35;;;;;;;12.63;11.93;;;26.90;1.00;;;;;;2614728;54;20515;-72
2023/06/05 15:46:23;;;;;;;12.80;12.00;;;27.00;1.00;;;;;;2614922;54;20465;-74
2023/06/05 15:52:11;;;;;;;12.80;11.90;;;27.10;1.00;;;;;;2614750;54;20411;-73
2023/06/05 15:57:59;;;;;;;12.93;12.03;;;26.90;1.00;;;;;;2614891;54;20165;-73
2023/06/05 16:03:46;;;;;;;12.70;11.93;;;27.50;1.00;;;;;;2614897;54;20135;-74
2023/06/05 16:09:35;;;;;;;13.67;12.83;;;27.20;1.00;;;;;;2614484;54;20129;-74
2023/06/05 16:15:23;;;;;;;13.90;13.10;;;27.30;1.00;;;;;;2615148;54;20391;-74
2023/06/05 16:21:10;;;;;;;15.03;14.03;;;27.00;1.00;;;;;;2614957;54;20134;-72
2023/06/05 16:26:58;;;;;;;13.93;13.27;;;27.60;1.00;;;;;;2614693;54;20127;-72
2023/06/05 16:33:02;;;;;;;14.80;13.80;;;26.40;1.00;;;;;;2613323;47;20155;-73
2023/06/05 16:38:50;;;;;;;14.87;13.93;;;25.90;1.00;;;;;;2613942;39;21133;-74
2023/06/05 16:44:37;;;;;;;13.90;13.20;;;26.00;1.00;;;;;;2613368;54;20519;-74
2023/06/05 16:50:24;;;;;;;14.10;13.40;;;26.00;1.00;;;;;;2613326;54;20739;-74
2023/06/05 16:56:11;;;;;;;15.50;14.70;;;25.90;1.00;;;;;;2612978;54;20130;-74
2023/06/05 17:01:59;;;;;;;16.27;15.27;;;25.50;1.00;;;;;;2613022;54;20740;-74
2023/06/05 17:07:46;;;;;;;16.20;15.50;;;25.30;1.00;;;;;;2613093;54;20174;-73
2023/06/05 17:13:34;;;;;;;15.67;14.33;;;25.50;1.00;;;;;;2615135;54;20787;-73
2023/06/05 17:19:22;;;;;;;15.13;14.13;;;25.40;1.00;;;;;;2614942;54;20127;-72
2023/06/05 17:25:11;;;;;;;14.97;14.27;;;25.30;1.00;;;;;;2615597;54;20379;-73
2023/06/05 17:34:49;;;;;;;17.57;16.77;;;24.70;1.00;;;;;;2615625;54;20426;-73
2023/06/05 17:40:39;;;;;;;17.43;16.67;;;24.60;1.00;;;;;;2615595;54;20403;-73
2023/06/05 17:46:26;;;;;;;18.07;17.17;;;24.10;1.00;;;;;;2616172;54;20415;-73
2023/06/05 17:52:15;;;;;;;17.37;16.57;;;23.90;1.00;;;;;;2615499;54;20130;-73
2023/06/05 17:58:02;;;;;;;16.77;15.97;;;23.90;1.00;;;;;;2614803;54;20438;-72
2023/06/05 18:03:50;;;;;;;17.87;16.97;;;23.70;1.00;;;;;;2614771;54;20230;-74
2023/06/05 18:09:38;;;;;;;19.00;18.10;;;23.40;1.00;;;;;;2614716;54;20407;-72
2023/06/05 18:15:25;;;;;;;44.10;40.50;;;23.40;1.00;;;;;;2614791;54;20138;-73
2023/06/05 18:21:14;;;;;;;19.50;18.60;;;23.20;1.00;;;;;;2614414;54;20779;-72
2023/06/05 18:27:01;;;;;;;17.47;16.40;;;23.10;1.00;;;;;;2614562;54;20422;-73
2023/06/05 18:33:03;;;;;;;16.33;15.57;;;22.90;1.00;;;;;;2613307;39;20626;-74
2023/06/05 18:38:50;;;;;;;16.80;16.00;;;22.80;1.00;;;;;;2613190;54;20144;-73
2023/06/05 18:44:39;;;;;;;17.20;16.20;;;22.70;1.00;;;;;;2613477;54;20424;-73
2023/06/05 18:50:28;;;;;;;18.13;17.10;;;22.50;1.00;;;;;;2613592;54;20423;-73
2023/06/05 18:56:15;;;;;;;18.87;17.83;;;22.30;1.00;;;;;;2613139;54;20408;-72
2023/06/05 19:02:03;;;;;;;17.70;16.90;;;22.10;1.00;;;;;;2613399;54;20176;-72
2023/06/05 19:07:50;;;;;;;17.33;16.57;;;21.90;1.00;;;;;;2613515;54;20998;-73
2023/06/05 19:13:38;;;;;;;17.50;16.33;;;21.80;1.00;;;;;;2615118;54;20239;-73
2023/06/05 19:19:26;;;;;;;19.00;17.67;;;21.70;1.00;;;;;;2615493;54;20395;-73
2023/06/05 19:25:14;;;;;;;18.73;17.20;;;21.40;1.00;;;;;;2614787;54;20131;-72
2023/06/05 19:34:52;;;;;;;18.57;17.57;;;21.10;1.00;;;;;;2614710;54;20506;-73
2023/06/05 19:40:39;;;;;;;17.33;16.53;;;20.90;1.00;;;;;;2615089;54;20938;-72
2023/06/05 19:46:28;;;;;;;18.33;17.33;;;20.70;1.00;;;;;;2615009;54;20170;-73
2023/06/05 19:52:15;;;;;;;18.73;17.93;;;20.40;1.00;;;;;;2614564;54;20387;-73
2023/06/05 19:58:03;;;;;;;19.70;18.60;;;20.10;1.00;;;;;;2614767;54;20199;-73
2023/06/05 20:03:51;;;;;;;18.93;17.83;;;19.70;1.00;;;;;;2614641;54;20122;-73
2023/06/05 20:09:39;;;;;;;18.17;17.17;;;19.40;3.30;;;;;;2614784;54;20130;-73
2023/06/05 20:15:27;;;;;;;18.33;17.33;;;19.00;7.50;;;;;;2614831;54;20134;-72
2023/06/05 20:21:16;;;;;;;17.93;17.13;;;18.80;10.40;;;;;;2614836;54;20383;-73
2023/06/05 20:27:04;;;;;;;18.13;17.33;;;18.60;14.40;;;;;;2614817;54;20491;-72
2023/06/05 20:32:54;;;;;;;17.97;17.03;;;18.30;16.60;;;;;;2615538;31;20818;-72
2023/06/05 20:38:42;;;;;;;17.77;16.67;;;18.00;21.10;;;;;;2614610;54;20395;-73
2023/06/05 20:44:38;;;;;;;18.70;17.80;;;17.80;25.80;;;;;;2614825;54;20130;-71
2023/06/05 20:50:27;;;;;;;17.73;16.93;;;17.60;29.40;;;;;;2614547;54;20392;-72
2023/06/05 21:02:49;;;;;;;19.10;17.70;;;17.70;35.10;;;;;;2615398;54;20411;-72
2023/06/05 21:08:37;;;;;;;17.30;16.50;;;17.90;29.00;;;;;;2614617;54;20394;-72
2023/06/05 21:14:26;;;;;;;18.37;17.27;;;17.60;29.10;;;;;;2615639;54;20154;-71
2023/06/05 21:20:13;;;;;;;17.80;16.97;;;17.80;34.50;;;;;;2615823;54;20678;-73
2023/06/05 21:26:01;;;;;;;17.67;16.77;;;17.90;55.80;;;;;;2615769;54;20130;-73
2023/06/05 21:31:49;;;;;;;17.20;16.30;;;17.80;86.20;;;;;;2615787;54;20130;-73
2023/06/05 21:34:51;;;;;;;18.77;17.47;;;17.80;94.20;;;;;;2614756;46;21339;-72
2023/06/05 21:37:18;;;;;;;16.77;15.93;;;17.70;98.40;;;;;;2614622;54;20975;-72
2023/06/05 21:43:06;;;;;;;15.83;14.90;;;17.60;99.90;;;;;;2615475;54;20511;-72
2023/06/05 21:48:53;;;;;;;17.13;16.33;;;17.60;99.90;;;;;;2615403;54;20130;-73
2023/06/05 21:54:42;;;;;;;17.40;16.50;;;17.40;99.90;;;;;;2615649;39;20624;-72
2023/06/05 22:00:29;;;;;;;17.47;16.37;;;17.30;99.90;;;;;;2615042;54;20411;-73
2023/06/05 22:06:17;;;;;;;16.23;15.00;;;17.30;99.90;;;;;;2614740;54;20134;-73
2023/06/05 22:12:06;;;;;;;15.07;14.07;;;17.20;99.90;;;;;;2615245;54;20443;-73
2023/06/05 22:17:54;;;;;;;16.00;14.70;;;17.10;99.90;;;;;;2615150;54;20407;-72
2023/06/05 22:23:44;;;;;;;15.30;14.33;;;17.00;99.90;;;;;;2615186;54;20475;-72
2023/06/05 22:29:32;;;;;;;14.77;13.97;;;16.90;99.90;;;;;;2615662;39;20819;-72
2023/06/05 22:39:20;;;;;;;14.07;13.27;;;16.70;99.90;;;;;;2615198;54;20527;-72
2023/06/05 22:45:08;;;;;;;13.87;13.07;;;16.60;99.90;;;;;;2615333;54;20937;-72
2023/06/05 22:50:58;;;;;;;13.97;13.07;;;16.40;99.90;;;;;;2615230;54;20467;-71
2023/06/05 22:56:45;;;;;;;14.47;13.47;;;16.60;99.90;;;;;;2614821;54;20913;-73
2023/06/05 23:02:33;;;;;;;14.57;13.60;;;16.50;99.90;;;;;;2615471;54;20131;-73
2023/06/05 23:08:22;;;;;;;14.37;13.57;;;16.50;99.90;;;;;;2615181;54;20147;-72
2023/06/05 23:14:10;;;;;;;14.70;13.70;;;16.40;99.90;;;;;;2615403;54;20367;-71
2023/06/05 23:19:58;;;;;;;14.63;13.83;;;16.30;99.90;;;;;;2615423;54;20196;-72
2023/06/05 23:25:46;;;;;;;14.10;13.13;;;16.20;99.90;;;;;;2615238;39;20934;-73
2023/06/05 23:31:36;;;;;;;13.87;12.53;;;16.10;99.90;;;;;;2615408;54;20399;-73
2023/06/05 23:34:52;;;;;;;14.37;13.30;;;16.10;99.90;;;;;;2615307;54;20404;-72
2023/06/05 23:37:18;;;;;;;12.93;12.13;;;16.20;99.90;;;;;;2614675;54;20435;-72
2023/06/05 23:43:06;;;;;;;14.50;13.40;;;16.00;99.90;;;;;;2615005;54;20950;-72
2023/06/05 23:48:54;;;;;;;14.00;12.83;;;15.90;99.90;;;;;;2614959;54;20415;-72
2023/06/05 23:54:43;;;;;;;13.30;12.50;;;15.90;99.90;;;;;;2615367;39;20910;-72
